sensor_id;sensor_type;location;lat;lon;timestamp;P1;durP1;ratioP1;P2;durP2;ratioP2
54705;SDS011;40603;48.774;8.916;2024-03-23T00:53:41;5.68;;;3.97;;
54705;SDS011;40603;48.774;8.916;2024-03-23T00:56:06;6.55;;;3.90;;
54705;SDS011;40603;48.774;8.916;2024-03-23T00:58:31;5.93;;;3.75;;
54705;SDS011;40603;48.774;8.916;2024-03-23T01:00:57;5.30;;;3.38;;
54705;SDS011;40603;48.774;8.916;2024-03-23T01:03:22;4.38;;;2.90;;
54705;SDS011;40603;48.774;8.916;2024-03-23T01:05:47;5.18;;;3.63;;
54705;SDS011;40603;48.774;8.916;2024-03-23T01:08:13;6.55;;;3.08;;
54705;SDS011;40603;48.774;8.916;2024-03-23T01:10:39;4.35;;;2.92;;
54705;SDS011;40603;48.774;8.916;2024-03-23T01:13:04;8.05;;;2.83;;
54705;SDS011;40603;48.774;8.916;2024-03-23T01:15:30;5.88;;;3.53;;
54705;SDS011;40603;48.774;8.916;2024-03-23T01:17:55;5.72;;;2.83;;
54705;SDS011;40603;48.774;8.916;2024-03-23T01:20:20;6.18;;;2.75;;
54705;SDS011;40603;48.774;8.916;2024-03-23T01:22:45;4.90;;;2.85;;
54705;SDS011;40603;48.774;8.916;2024-03-23T01:25:11;6.63;;;3.17;;
54705;SDS011;40603;48.774;8.916;2024-03-23T01:27:36;5.72;;;3.20;;
54705;SDS011;40603;48.774;8.916;2024-03-23T01:30:01;4.97;;;2.40;;
54705;SDS011;40603;48.774;8.916;2024-03-23T01:32:27;4.20;;;2.90;;
54705;SDS011;40603;48.774;8.916;2024-03-23T01:34:52;5.40;;;2.50;;
54705;SDS011;40603;48.774;8.916;2024-03-23T01:37:17;4.00;;;2.55;;
54705;SDS011;40603;48.774;8.916;2024-03-23T01:39:43;8.38;;;2.70;;
54705;SDS011;40603;48.774;8.916;2024-03-23T01:42:08;4.63;;;2.28;;
54705;SDS011;40603;48.774;8.916;2024-03-23T01:44:33;5.50;;;2.90;;
54705;SDS011;40603;48.774;8.916;2024-03-23T01:46:58;3.85;;;2.65;;
54705;SDS011;40603;48.774;8.916;2024-03-23T01:49:24;3.63;;;2.40;;
54705;SDS011;40603;48.774;8.916;2024-03-23T01:51:49;6.60;;;2.30;;
54705;SDS011;40603;48.774;8.916;2024-03-23T01:54:15;5.22;;;2.25;;
54705;SDS011;40603;48.774;8.916;2024-03-23T01:56:40;5.85;;;2.50;;
54705;SDS011;40603;48.774;8.916;2024-03-23T01:59:05;6.22;;;2.67;;
54705;SDS011;40603;48.774;8.916;2024-03-23T02:01:31;4.07;;;2.45;;
54705;SDS011;40603;48.774;8.916;2024-03-23T02:03:57;4.85;;;2.60;;
54705;SDS011;40603;48.774;8.916;2024-03-23T02:06:23;3.97;;;1.95;;
54705;SDS011;40603;48.774;8.916;2024-03-23T02:08:49;5.82;;;2.53;;
54705;SDS011;40603;48.774;8.916;2024-03-23T02:11:15;6.07;;;2.45;;
54705;SDS011;40603;48.774;8.916;2024-03-23T02:13:40;5.50;;;2.67;;
54705;SDS011;40603;48.774;8.916;2024-03-23T02:16:05;4.38;;;2.13;;
54705;SDS011;40603;48.774;8.916;2024-03-23T02:18:31;2.75;;;2.15;;
54705;SDS011;40603;48.774;8.916;2024-03-23T02:20:57;3.15;;;2.20;;
54705;SDS011;40603;48.774;8.916;2024-03-23T02:23:22;4.72;;;2.50;;
54705;SDS011;40603;48.774;8.916;2024-03-23T02:25:49;4.75;;;2.75;;
54705;SDS011;40603;48.774;8.916;2024-03-23T02:28:14;3.05;;;2.08;;
54705;SDS011;40603;48.774;8.916;2024-03-23T02:30:40;4.13;;;2.17;;
54705;SDS011;40603;48.774;8.916;2024-03-23T02:33:05;3.60;;;2.50;;
54705;SDS011;40603;48.774;8.916;2024-03-23T02:35:30;4.43;;;2.63;;
54705;SDS011;40603;48.774;8.916;2024-03-23T02:37:55;5.70;;;2.45;;
54705;SDS011;40603;48.774;8.916;2024-03-23T02:40:22;7.03;;;2.70;;
54705;SDS011;40603;48.774;8.916;2024-03-23T02:42:48;3.67;;;2.35;;
54705;SDS011;40603;48.774;8.916;2024-03-23T02:45:13;4.78;;;2.50;;
54705;SDS011;40603;48.774;8.916;2024-03-23T02:47:39;5.25;;;2.90;;
54705;SDS011;40603;48.774;8.916;2024-03-23T02:50:04;3.40;;;1.98;;
54705;SDS011;40603;48.774;8.916;2024-03-23T02:52:30;3.50;;;2.15;;
54705;SDS011;40603;48.774;8.916;2024-03-23T02:54:55;5.15;;;2.42;;
54705;SDS011;40603;48.774;8.916;2024-03-23T02:57:21;3.67;;;2.25;;
54705;SDS011;40603;48.774;8.916;2024-03-23T02:59:46;6.07;;;2.25;;
54705;SDS011;40603;48.774;8.916;2024-03-23T03:02:12;5.93;;;2.40;;
54705;SDS011;40603;48.774;8.916;2024-03-23T03:04:38;4.55;;;2.28;;
54705;SDS011;40603;48.774;8.916;2024-03-23T03:07:03;5.53;;;2.70;;
54705;SDS011;40603;48.774;8.916;2024-03-23T03:09:29;6.05;;;2.60;;
54705;SDS011;40603;48.774;8.916;2024-03-23T03:11:54;3.65;;;2.10;;
54705;SDS011;40603;48.774;8.916;2024-03-23T03:14:19;4.28;;;2.40;;
54705;SDS011;40603;48.774;8.916;2024-03-23T03:16:45;5.35;;;2.67;;
54705;SDS011;40603;48.774;8.916;2024-03-23T03:19:10;4.72;;;3.05;;
54705;SDS011;40603;48.774;8.916;2024-03-23T03:21:35;3.38;;;2.35;;
54705;SDS011;40603;48.774;8.916;2024-03-23T03:24:01;5.78;;;2.78;;
54705;SDS011;40603;48.774;8.916;2024-03-23T03:26:26;4.70;;;2.95;;
54705;SDS011;40603;48.774;8.916;2024-03-23T03:28:52;8.40;;;3.00;;
54705;SDS011;40603;48.774;8.916;2024-03-23T03:31:17;5.38;;;2.40;;
54705;SDS011;40603;48.774;8.916;2024-03-23T03:33:43;6.00;;;2.00;;
54705;SDS011;40603;48.774;8.916;2024-03-23T03:36:09;5.60;;;2.80;;
54705;SDS011;40603;48.774;8.916;2024-03-23T03:38:34;4.40;;;2.50;;
54705;SDS011;40603;48.774;8.916;2024-03-23T03:41:00;3.50;;;2.30;;
54705;SDS011;40603;48.774;8.916;2024-03-23T03:43:26;6.13;;;2.38;;
54705;SDS011;40603;48.774;8.916;2024-03-23T03:45:52;3.42;;;2.33;;
54705;SDS011;40603;48.774;8.916;2024-03-23T03:48:18;4.95;;;2.72;;
54705;SDS011;40603;48.774;8.916;2024-03-23T03:50:43;2.38;;;2.00;;
54705;SDS011;40603;48.774;8.916;2024-03-23T03:53:08;2.63;;;2.28;;
54705;SDS011;40603;48.774;8.916;2024-03-23T03:55:34;5.32;;;2.70;;
54705;SDS011;40603;48.774;8.916;2024-03-23T03:57:59;3.72;;;2.70;;
54705;SDS011;40603;48.774;8.916;2024-03-23T04:00:24;3.40;;;2.30;;
54705;SDS011;40603;48.774;8.916;2024-03-23T04:02:50;12.23;;;5.55;;
54705;SDS011;40603;48.774;8.916;2024-03-23T04:05:15;5.03;;;3.10;;
54705;SDS011;40603;48.774;8.916;2024-03-23T04:07:41;5.68;;;3.00;;
54705;SDS011;40603;48.774;8.916;2024-03-23T04:10:07;24.58;;;10.43;;
54705;SDS011;40603;48.774;8.916;2024-03-23T04:12:33;39.10;;;15.63;;
54705;SDS011;40603;48.774;8.916;2024-03-23T04:14:58;7.05;;;4.45;;
54705;SDS011;40603;48.774;8.916;2024-03-23T04:17:24;6.07;;;3.30;;
54705;SDS011;40603;48.774;8.916;2024-03-23T04:19:50;6.47;;;3.17;;
54705;SDS011;40603;48.774;8.916;2024-03-23T04:22:17;9.35;;;3.10;;
54705;SDS011;40603;48.774;8.916;2024-03-23T04:24:42;6.10;;;3.20;;
54705;SDS011;40603;48.774;8.916;2024-03-23T04:27:08;6.97;;;4.15;;
54705;SDS011;40603;48.774;8.916;2024-03-23T04:29:33;8.35;;;4.88;;
54705;SDS011;40603;48.774;8.916;2024-03-23T04:31:58;12.90;;;6.03;;
54705;SDS011;40603;48.774;8.916;2024-03-23T04:34:24;10.45;;;6.03;;
54705;SDS011;40603;48.774;8.916;2024-03-23T04:36:49;10.05;;;6.50;;
54705;SDS011;40603;48.774;8.916;2024-03-23T04:39:15;19.80;;;8.57;;
54705;SDS011;40603;48.774;8.916;2024-03-23T04:41:40;15.98;;;8.25;;
54705;SDS011;40603;48.774;8.916;2024-03-23T04:44:05;12.70;;;8.95;;
54705;SDS011;40603;48.774;8.916;2024-03-23T04:46:31;18.27;;;10.65;;
54705;SDS011;40603;48.774;8.916;2024-03-23T04:48:56;23.30;;;11.38;;
54705;SDS011;40603;48.774;8.916;2024-03-23T04:51:24;25.80;;;14.98;;
54705;SDS011;40603;48.774;8.916;2024-03-23T04:53:50;23.80;;;15.02;;
54705;SDS011;40603;48.774;8.916;2024-03-23T04:56:16;26.75;;;16.17;;
54705;SDS011;40603;48.774;8.916;2024-03-23T04:58:42;28.67;;;15.43;;
54705;SDS011;40603;48.774;8.916;2024-03-23T05:01:07;23.25;;;15.38;;
54705;SDS011;40603;48.774;8.916;2024-03-23T05:03:32;23.83;;;14.95;;
54705;SDS011;40603;48.774;8.916;2024-03-23T05:05:58;23.02;;;13.70;;
54705;SDS011;40603;48.774;8.916;2024-03-23T05:08:23;21.67;;;13.30;;
54705;SDS011;40603;48.774;8.916;2024-03-23T05:10:48;21.02;;;13.25;;
54705;SDS011;40603;48.774;8.916;2024-03-23T05:13:14;18.98;;;11.63;;
54705;SDS011;40603;48.774;8.916;2024-03-23T05:15:39;21.00;;;12.43;;
54705;SDS011;40603;48.774;8.916;2024-03-23T05:18:04;19.35;;;12.43;;
54705;SDS011;40603;48.774;8.916;2024-03-23T05:20:30;22.80;;;12.20;;
54705;SDS011;40603;48.774;8.916;2024-03-23T05:22:56;20.75;;;12.30;;
54705;SDS011;40603;48.774;8.916;2024-03-23T05:25:21;21.77;;;11.98;;
54705;SDS011;40603;48.774;8.916;2024-03-23T05:27:47;23.55;;;12.82;;
54705;SDS011;40603;48.774;8.916;2024-03-23T05:30:12;17.20;;;11.20;;
54705;SDS011;40603;48.774;8.916;2024-03-23T05:32:38;19.30;;;10.88;;
54705;SDS011;40603;48.774;8.916;2024-03-23T05:35:05;14.45;;;9.18;;
54705;SDS011;40603;48.774;8.916;2024-03-23T05:37:32;13.60;;;8.20;;
54705;SDS011;40603;48.774;8.916;2024-03-23T05:39:59;13.18;;;8.23;;
54705;SDS011;40603;48.774;8.916;2024-03-23T05:42:24;13.52;;;7.60;;
54705;SDS011;40603;48.774;8.916;2024-03-23T05:44:49;13.18;;;7.38;;
54705;SDS011;40603;48.774;8.916;2024-03-23T05:47:14;12.60;;;6.60;;
54705;SDS011;40603;48.774;8.916;2024-03-23T05:49:41;14.45;;;8.00;;
54705;SDS011;40603;48.774;8.916;2024-03-23T05:52:07;18.70;;;8.07;;
54705;SDS011;40603;48.774;8.916;2024-03-23T05:54:33;12.35;;;7.15;;
54705;SDS011;40603;48.774;8.916;2024-03-23T05:56:58;8.00;;;5.40;;
54705;SDS011;40603;48.774;8.916;2024-03-23T05:59:24;7.30;;;4.93;;
54705;SDS011;40603;48.774;8.916;2024-03-23T06:01:49;8.23;;;4.32;;
54705;SDS011;40603;48.774;8.916;2024-03-23T06:04:15;4.90;;;3.45;;
54705;SDS011;40603;48.774;8.916;2024-03-23T06:06:40;4.30;;;2.90;;
54705;SDS011;40603;48.774;8.916;2024-03-23T06:09:05;3.75;;;2.78;;
54705;SDS011;40603;48.774;8.916;2024-03-23T06:11:30;3.80;;;2.08;;
54705;SDS011;40603;48.774;8.916;2024-03-23T06:13:56;3.58;;;1.90;;
54705;SDS011;40603;48.774;8.916;2024-03-23T06:16:21;3.42;;;1.60;;
54705;SDS011;40603;48.774;8.916;2024-03-23T06:18:53;1.83;;;1.48;;
54705;SDS011;40603;48.774;8.916;2024-03-23T06:21:19;1.10;;;1.00;;
54705;SDS011;40603;48.774;8.916;2024-03-23T06:23:45;0.80;;;0.80;;
54705;SDS011;40603;48.774;8.916;2024-03-23T06:26:17;1.73;;;0.80;;
54705;SDS011;40603;48.774;8.916;2024-03-23T06:28:42;0.68;;;0.50;;
54705;SDS011;40603;48.774;8.916;2024-03-23T06:31:11;0.40;;;0.40;;
54705;SDS011;40603;48.774;8.916;2024-03-23T06:33:36;0.65;;;0.60;;
54705;SDS011;40603;48.774;8.916;2024-03-23T06:36:02;1.17;;;0.63;;
54705;SDS011;40603;48.774;8.916;2024-03-23T06:38:28;0.57;;;0.50;;
54705;SDS011;40603;48.774;8.916;2024-03-23T06:40:53;1.55;;;0.70;;
54705;SDS011;40603;48.774;8.916;2024-03-23T06:43:19;1.05;;;0.50;;
54705;SDS011;40603;48.774;8.916;2024-03-23T06:45:44;5.18;;;0.73;;
54705;SDS011;40603;48.774;8.916;2024-03-23T06:48:09;0.55;;;0.55;;
54705;SDS011;40603;48.774;8.916;2024-03-23T06:50:35;0.55;;;0.55;;
54705;SDS011;40603;48.774;8.916;2024-03-23T06:53:00;0.80;;;0.68;;
54705;SDS011;40603;48.774;8.916;2024-03-23T06:55:27;1.38;;;0.80;;
54705;SDS011;40603;48.774;8.916;2024-03-23T06:57:55;0.40;;;0.40;;
54705;SDS011;40603;48.774;8.916;2024-03-23T07:00:20;0.80;;;0.80;;
54705;SDS011;40603;48.774;8.916;2024-03-23T07:02:45;0.60;;;0.60;;
54705;SDS011;40603;48.774;8.916;2024-03-23T07:05:11;0.32;;;0.32;;
54705;SDS011;40603;48.774;8.916;2024-03-23T07:07:37;0.30;;;0.30;;
54705;SDS011;40603;48.774;8.916;2024-03-23T07:10:03;0.40;;;0.40;;
54705;SDS011;40603;48.774;8.916;2024-03-23T07:12:29;1.60;;;0.40;;
54705;SDS011;40603;48.774;8.916;2024-03-23T07:14:54;0.40;;;0.40;;
54705;SDS011;40603;48.774;8.916;2024-03-23T07:17:20;0.40;;;0.30;;
54705;SDS011;40603;48.774;8.916;2024-03-23T07:19:46;2.40;;;0.50;;
54705;SDS011;40603;48.774;8.916;2024-03-23T07:22:11;0.30;;;0.30;;
54705;SDS011;40603;48.774;8.916;2024-03-23T07:24:36;0.63;;;0.45;;
54705;SDS011;40603;48.774;8.916;2024-03-23T07:27:04;0.90;;;0.45;;
54705;SDS011;40603;48.774;8.916;2024-03-23T07:29:29;0.50;;;0.50;;
54705;SDS011;40603;48.774;8.916;2024-03-23T07:31:54;0.77;;;0.57;;
54705;SDS011;40603;48.774;8.916;2024-03-23T07:34:20;0.40;;;0.40;;
54705;SDS011;40603;48.774;8.916;2024-03-23T07:36:45;0.35;;;0.35;;
54705;SDS011;40603;48.774;8.916;2024-03-23T07:39:10;0.60;;;0.40;;
54705;SDS011;40603;48.774;8.916;2024-03-23T07:41:36;0.30;;;0.30;;
54705;SDS011;40603;48.774;8.916;2024-03-23T07:44:01;0.65;;;0.60;;
54705;SDS011;40603;48.774;8.916;2024-03-23T07:46:27;1.10;;;0.57;;
54705;SDS011;40603;48.774;8.916;2024-03-23T07:48:52;0.45;;;0.45;;
54705;SDS011;40603;48.774;8.916;2024-03-23T07:51:19;0.60;;;0.60;;
54705;SDS011;40603;48.774;8.916;2024-03-23T07:53:46;0.70;;;0.70;;
54705;SDS011;40603;48.774;8.916;2024-03-23T07:56:12;2.67;;;0.55;;
54705;SDS011;40603;48.774;8.916;2024-03-23T07:58:40;0.77;;;0.65;;
54705;SDS011;40603;48.774;8.916;2024-03-23T08:03:33;1.27;;;0.60;;
54705;SDS011;40603;48.774;8.916;2024-03-23T08:06:06;0.88;;;0.82;;
54705;SDS011;40603;48.774;8.916;2024-03-23T08:08:43;1.23;;;0.80;;
54705;SDS011;40603;48.774;8.916;2024-03-23T08:11:09;1.10;;;1.00;;
54705;SDS011;40603;48.774;8.916;2024-03-23T08:13:35;1.25;;;0.90;;
54705;SDS011;40603;48.774;8.916;2024-03-23T08:16:01;1.17;;;1.00;;
54705;SDS011;40603;48.774;8.916;2024-03-23T08:18:28;3.50;;;1.25;;
54705;SDS011;40603;48.774;8.916;2024-03-23T08:23:23;3.05;;;1.85;;
54705;SDS011;40603;48.774;8.916;2024-03-23T08:25:49;4.32;;;1.77;;
54705;SDS011;40603;48.774;8.916;2024-03-23T08:28:15;2.63;;;1.13;;
54705;SDS011;40603;48.774;8.916;2024-03-23T08:30:40;2.03;;;1.27;;
54705;SDS011;40603;48.774;8.916;2024-03-23T08:33:05;2.30;;;1.50;;
54705;SDS011;40603;48.774;8.916;2024-03-23T08:35:31;2.90;;;1.50;;
54705;SDS011;40603;48.774;8.916;2024-03-23T08:37:56;1.25;;;1.10;;
54705;SDS011;40603;48.774;8.916;2024-03-23T08:40:21;2.00;;;1.23;;
54705;SDS011;40603;48.774;8.916;2024-03-23T08:42:47;2.38;;;1.20;;
54705;SDS011;40603;48.774;8.916;2024-03-23T08:45:12;1.92;;;1.20;;
54705;SDS011;40603;48.774;8.916;2024-03-23T08:47:37;2.72;;;1.23;;
54705;SDS011;40603;48.774;8.916;2024-03-23T08:50:03;4.05;;;1.50;;
54705;SDS011;40603;48.774;8.916;2024-03-23T08:52:28;2.45;;;1.60;;
54705;SDS011;40603;48.774;8.916;2024-03-23T08:54:54;2.30;;;1.48;;
54705;SDS011;40603;48.774;8.916;2024-03-23T08:57:21;4.03;;;1.60;;
54705;SDS011;40603;48.774;8.916;2024-03-23T08:59:46;3.25;;;1.77;;
54705;SDS011;40603;48.774;8.916;2024-03-23T09:02:11;4.10;;;2.17;;
54705;SDS011;40603;48.774;8.916;2024-03-23T09:04:37;6.63;;;2.35;;
54705;SDS011;40603;48.774;8.916;2024-03-23T09:07:02;5.25;;;2.53;;
54705;SDS011;40603;48.774;8.916;2024-03-23T09:09:27;4.00;;;2.50;;
54705;SDS011;40603;48.774;8.916;2024-03-23T09:11:53;14.20;;;2.67;;
54705;SDS011;40603;48.774;8.916;2024-03-23T09:14:18;7.90;;;3.22;;
54705;SDS011;40603;48.774;8.916;2024-03-23T09:16:44;10.52;;;3.22;;
54705;SDS011;40603;48.774;8.916;2024-03-23T09:19:09;12.82;;;3.15;;
54705;SDS011;40603;48.774;8.916;2024-03-23T09:21:35;4.18;;;2.88;;
54705;SDS011;40603;48.774;8.916;2024-03-23T09:24:00;9.07;;;2.60;;
54705;SDS011;40603;48.774;8.916;2024-03-23T09:26:25;4.22;;;2.75;;
54705;SDS011;40603;48.774;8.916;2024-03-23T09:28:51;6.68;;;2.67;;
54705;SDS011;40603;48.774;8.916;2024-03-23T09:31:16;7.32;;;2.67;;
54705;SDS011;40603;48.774;8.916;2024-03-23T09:33:42;5.32;;;2.75;;
54705;SDS011;40603;48.774;8.916;2024-03-23T09:36:07;9.50;;;3.47;;
54705;SDS011;40603;48.774;8.916;2024-03-23T09:38:33;8.20;;;3.05;;
54705;SDS011;40603;48.774;8.916;2024-03-23T09:40:58;6.13;;;2.85;;
54705;SDS011;40603;48.774;8.916;2024-03-23T09:43:26;14.00;;;4.05;;
54705;SDS011;40603;48.774;8.916;2024-03-23T09:45:52;6.32;;;2.25;;
54705;SDS011;40603;48.774;8.916;2024-03-23T09:48:17;9.13;;;2.83;;
54705;SDS011;40603;48.774;8.916;2024-03-23T09:50:43;6.75;;;3.05;;
54705;SDS011;40603;48.774;8.916;2024-03-23T09:53:10;6.30;;;2.83;;
54705;SDS011;40603;48.774;8.916;2024-03-23T09:55:38;7.63;;;2.33;;
54705;SDS011;40603;48.774;8.916;2024-03-23T09:58:05;9.10;;;3.15;;
54705;SDS011;40603;48.774;8.916;2024-03-23T10:00:31;8.38;;;2.95;;
54705;SDS011;40603;48.774;8.916;2024-03-23T10:02:58;8.35;;;2.72;;
54705;SDS011;40603;48.774;8.916;2024-03-23T10:05:26;10.73;;;3.57;;
54705;SDS011;40603;48.774;8.916;2024-03-23T10:07:52;6.82;;;3.30;;
54705;SDS011;40603;48.774;8.916;2024-03-23T10:10:18;8.75;;;3.35;;
54705;SDS011;40603;48.774;8.916;2024-03-23T10:12:44;10.32;;;2.88;;
54705;SDS011;40603;48.774;8.916;2024-03-23T10:15:24;9.80;;;3.28;;
54705;SDS011;40603;48.774;8.916;2024-03-23T10:17:50;5.57;;;2.92;;
54705;SDS011;40603;48.774;8.916;2024-03-23T10:20:19;7.57;;;3.17;;
54705;SDS011;40603;48.774;8.916;2024-03-23T10:22:45;10.93;;;2.90;;
54705;SDS011;40603;48.774;8.916;2024-03-23T10:25:10;10.32;;;3.88;;
54705;SDS011;40603;48.774;8.916;2024-03-23T10:27:37;10.85;;;2.50;;
54705;SDS011;40603;48.774;8.916;2024-03-23T10:30:12;6.22;;;2.60;;
54705;SDS011;40603;48.774;8.916;2024-03-23T10:32:40;8.82;;;2.47;;
54705;SDS011;40603;48.774;8.916;2024-03-23T10:37:40;5.07;;;2.40;;
54705;SDS011;40603;48.774;8.916;2024-03-23T10:40:07;7.00;;;2.35;;
54705;SDS011;40603;48.774;8.916;2024-03-23T10:42:33;4.47;;;2.42;;
54705;SDS011;40603;48.774;8.916;2024-03-23T10:44:59;5.75;;;2.05;;
54705;SDS011;40603;48.774;8.916;2024-03-23T10:47:25;6.55;;;2.10;;
54705;SDS011;40603;48.774;8.916;2024-03-23T10:49:51;5.38;;;2.15;;
54705;SDS011;40603;48.774;8.916;2024-03-23T10:52:16;5.25;;;2.28;;
54705;SDS011;40603;48.774;8.916;2024-03-23T10:54:41;4.40;;;2.10;;
54705;SDS011;40603;48.774;8.916;2024-03-23T10:57:09;4.18;;;1.88;;
54705;SDS011;40603;48.774;8.916;2024-03-23T10:59:38;13.55;;;2.47;;
54705;SDS011;40603;48.774;8.916;2024-03-23T11:02:03;6.70;;;2.80;;
54705;SDS011;40603;48.774;8.916;2024-03-23T11:04:36;6.65;;;2.17;;
54705;SDS011;40603;48.774;8.916;2024-03-23T11:09:48;4.53;;;2.17;;
54705;SDS011;40603;48.774;8.916;2024-03-23T11:14:50;4.90;;;2.13;;
54705;SDS011;40603;48.774;8.916;2024-03-23T11:17:20;4.75;;;1.60;;
54705;SDS011;40603;48.774;8.916;2024-03-23T11:20:19;2.90;;;1.70;;
54705;SDS011;40603;48.774;8.916;2024-03-23T11:22:38;4.15;;;1.58;;
54705;SDS011;40603;48.774;8.916;2024-03-23T11:25:14;3.63;;;1.73;;
54705;SDS011;40603;48.774;8.916;2024-03-23T11:27:49;3.90;;;1.60;;
54705;SDS011;40603;48.774;8.916;2024-03-23T11:30:19;2.42;;;1.08;;
54705;SDS011;40603;48.774;8.916;2024-03-23T11:32:47;8.93;;;1.67;;
54705;SDS011;40603;48.774;8.916;2024-03-23T11:35:32;6.60;;;1.73;;
54705;SDS011;40603;48.774;8.916;2024-03-23T11:38:09;8.30;;;1.20;;
54705;SDS011;40603;48.774;8.916;2024-03-23T11:40:47;2.97;;;1.02;;
54705;SDS011;40603;48.774;8.916;2024-03-23T11:43:13;4.78;;;1.23;;
54705;SDS011;40603;48.774;8.916;2024-03-23T11:45:40;1.50;;;1.15;;
54705;SDS011;40603;48.774;8.916;2024-03-23T11:48:13;11.23;;;1.40;;
54705;SDS011;40603;48.774;8.916;2024-03-23T11:50:40;5.32;;;1.13;;
54705;SDS011;40603;48.774;8.916;2024-03-23T11:55:42;7.25;;;1.42;;
54705;SDS011;40603;48.774;8.916;2024-03-23T11:58:11;8.52;;;1.80;;
54705;SDS011;40603;48.774;8.916;2024-03-23T12:00:37;7.65;;;1.60;;
54705;SDS011;40603;48.774;8.916;2024-03-23T12:03:02;5.68;;;1.85;;
54705;SDS011;40603;48.774;8.916;2024-03-23T12:05:28;6.97;;;1.70;;
54705;SDS011;40603;48.774;8.916;2024-03-23T12:07:54;5.72;;;1.75;;
54705;SDS011;40603;48.774;8.916;2024-03-23T12:10:20;7.07;;;1.70;;
54705;SDS011;40603;48.774;8.916;2024-03-23T12:12:45;4.90;;;1.27;;
54705;SDS011;40603;48.774;8.916;2024-03-23T12:15:10;8.50;;;1.83;;
54705;SDS011;40603;48.774;8.916;2024-03-23T12:17:37;3.88;;;1.60;;
54705;SDS011;40603;48.774;8.916;2024-03-23T12:20:03;6.78;;;1.80;;
54705;SDS011;40603;48.774;8.916;2024-03-23T12:22:29;9.90;;;2.53;;
54705;SDS011;40603;48.774;8.916;2024-03-23T12:24:54;6.93;;;1.88;;
54705;SDS011;40603;48.774;8.916;2024-03-23T12:27:20;9.65;;;2.22;;
54705;SDS011;40603;48.774;8.916;2024-03-23T12:29:45;8.18;;;2.20;;
54705;SDS011;40603;48.774;8.916;2024-03-23T12:32:11;3.70;;;1.73;;
54705;SDS011;40603;48.774;8.916;2024-03-23T12:34:37;4.65;;;1.75;;
54705;SDS011;40603;48.774;8.916;2024-03-23T12:37:03;8.07;;;2.00;;
54705;SDS011;40603;48.774;8.916;2024-03-23T12:39:28;6.97;;;2.00;;
54705;SDS011;40603;48.774;8.916;2024-03-23T12:41:53;6.07;;;2.35;;
54705;SDS011;40603;48.774;8.916;2024-03-23T12:44:19;7.78;;;2.28;;
54705;SDS011;40603;48.774;8.916;2024-03-23T12:46:44;5.78;;;1.98;;
54705;SDS011;40603;48.774;8.916;2024-03-23T12:49:10;10.63;;;2.13;;
54705;SDS011;40603;48.774;8.916;2024-03-23T12:51:35;12.43;;;2.25;;
54705;SDS011;40603;48.774;8.916;2024-03-23T12:54:01;7.55;;;2.17;;
54705;SDS011;40603;48.774;8.916;2024-03-23T12:56:27;10.57;;;2.78;;
54705;SDS011;40603;48.774;8.916;2024-03-23T12:58:58;9.07;;;2.25;;
54705;SDS011;40603;48.774;8.916;2024-03-23T13:01:24;7.00;;;2.10;;
54705;SDS011;40603;48.774;8.916;2024-03-23T13:03:49;7.55;;;1.75;;
54705;SDS011;40603;48.774;8.916;2024-03-23T13:06:15;7.72;;;2.10;;
54705;SDS011;40603;48.774;8.916;2024-03-23T13:08:41;9.63;;;1.85;;
54705;SDS011;40603;48.774;8.916;2024-03-23T13:11:08;4.93;;;1.90;;
54705;SDS011;40603;48.774;8.916;2024-03-23T13:13:36;5.82;;;1.90;;
54705;SDS011;40603;48.774;8.916;2024-03-23T13:16:03;6.55;;;1.58;;
54705;SDS011;40603;48.774;8.916;2024-03-23T13:18:31;8.90;;;1.50;;
54705;SDS011;40603;48.774;8.916;2024-03-23T13:20:57;7.30;;;1.67;;
54705;SDS011;40603;48.774;8.916;2024-03-23T13:23:23;4.80;;;1.30;;
54705;SDS011;40603;48.774;8.916;2024-03-23T13:25:52;3.30;;;1.30;;
54705;SDS011;40603;48.774;8.916;2024-03-23T13:30:51;4.15;;;1.38;;
54705;SDS011;40603;48.774;8.916;2024-03-23T13:33:20;7.32;;;1.52;;
54705;SDS011;40603;48.774;8.916;2024-03-23T13:35:49;5.72;;;1.20;;
54705;SDS011;40603;48.774;8.916;2024-03-23T13:38:17;5.38;;;1.67;;
54705;SDS011;40603;48.774;8.916;2024-03-23T13:41:16;8.73;;;1.77;;
54705;SDS011;40603;48.774;8.916;2024-03-23T13:43:37;4.32;;;1.50;;
54705;SDS011;40603;48.774;8.916;2024-03-23T13:46:02;3.40;;;1.48;;
54705;SDS011;40603;48.774;8.916;2024-03-23T13:48:27;9.13;;;2.33;;
54705;SDS011;40603;48.774;8.916;2024-03-23T13:50:57;4.63;;;1.65;;
54705;SDS011;40603;48.774;8.916;2024-03-23T13:53:29;5.05;;;1.52;;
54705;SDS011;40603;48.774;8.916;2024-03-23T13:55:55;7.47;;;1.80;;
54705;SDS011;40603;48.774;8.916;2024-03-23T13:58:20;7.22;;;1.70;;
54705;SDS011;40603;48.774;8.916;2024-03-23T14:00:46;4.15;;;0.80;;
54705;SDS011;40603;48.774;8.916;2024-03-23T14:03:12;1.67;;;0.70;;
54705;SDS011;40603;48.774;8.916;2024-03-23T14:05:37;1.73;;;0.60;;
54705;SDS011;40603;48.774;8.916;2024-03-23T14:08:04;2.28;;;0.88;;
54705;SDS011;40603;48.774;8.916;2024-03-23T14:10:30;3.88;;;1.00;;
54705;SDS011;40603;48.774;8.916;2024-03-23T14:12:55;2.42;;;0.85;;
54705;SDS011;40603;48.774;8.916;2024-03-23T14:15:20;3.97;;;0.90;;
54705;SDS011;40603;48.774;8.916;2024-03-23T14:17:46;3.95;;;1.13;;
54705;SDS011;40603;48.774;8.916;2024-03-23T14:20:11;4.30;;;1.25;;
54705;SDS011;40603;48.774;8.916;2024-03-23T14:22:38;2.47;;;0.90;;
54705;SDS011;40603;48.774;8.916;2024-03-23T14:25:06;3.83;;;1.30;;
54705;SDS011;40603;48.774;8.916;2024-03-23T14:27:31;6.88;;;1.58;;
54705;SDS011;40603;48.774;8.916;2024-03-23T14:29:57;2.92;;;0.95;;
54705;SDS011;40603;48.774;8.916;2024-03-23T14:32:22;3.17;;;1.23;;
54705;SDS011;40603;48.774;8.916;2024-03-23T14:34:47;4.68;;;0.88;;
54705;SDS011;40603;48.774;8.916;2024-03-23T14:37:13;3.13;;;1.00;;
54705;SDS011;40603;48.774;8.916;2024-03-23T14:39:40;4.43;;;1.10;;
54705;SDS011;40603;48.774;8.916;2024-03-23T14:42:06;2.58;;;0.93;;
54705;SDS011;40603;48.774;8.916;2024-03-23T14:44:33;4.55;;;1.10;;
54705;SDS011;40603;48.774;8.916;2024-03-23T14:46:58;3.28;;;1.00;;
54705;SDS011;40603;48.774;8.916;2024-03-23T14:49:24;1.55;;;0.75;;
54705;SDS011;40603;48.774;8.916;2024-03-23T14:51:49;3.47;;;1.10;;
54705;SDS011;40603;48.774;8.916;2024-03-23T14:54:15;6.07;;;0.90;;
54705;SDS011;40603;48.774;8.916;2024-03-23T14:56:40;1.50;;;0.70;;
54705;SDS011;40603;48.774;8.916;2024-03-23T14:59:05;8.07;;;1.10;;
54705;SDS011;40603;48.774;8.916;2024-03-23T15:01:32;3.92;;;0.93;;
54705;SDS011;40603;48.774;8.916;2024-03-23T15:03:57;1.73;;;0.77;;
54705;SDS011;40603;48.774;8.916;2024-03-23T15:06:22;1.48;;;0.50;;
54705;SDS011;40603;48.774;8.916;2024-03-23T15:08:48;1.75;;;0.73;;
54705;SDS011;40603;48.774;8.916;2024-03-23T15:11:14;1.92;;;0.70;;
54705;SDS011;40603;48.774;8.916;2024-03-23T15:13:39;5.07;;;0.80;;
54705;SDS011;40603;48.774;8.916;2024-03-23T15:16:04;4.53;;;0.98;;
54705;SDS011;40603;48.774;8.916;2024-03-23T15:18:31;2.60;;;0.82;;
54705;SDS011;40603;48.774;8.916;2024-03-23T15:20:58;3.88;;;1.10;;
54705;SDS011;40603;48.774;8.916;2024-03-23T15:28:21;3.67;;;0.90;;
54705;SDS011;40603;48.774;8.916;2024-03-23T15:30:48;3.22;;;0.90;;
54705;SDS011;40603;48.774;8.916;2024-03-23T15:33:13;3.13;;;0.98;;
54705;SDS011;40603;48.774;8.916;2024-03-23T15:35:39;2.72;;;0.95;;
54705;SDS011;40603;48.774;8.916;2024-03-23T15:38:04;2.00;;;0.90;;
54705;SDS011;40603;48.774;8.916;2024-03-23T15:40:29;4.65;;;1.30;;
54705;SDS011;40603;48.774;8.916;2024-03-23T15:42:54;2.92;;;0.95;;
54705;SDS011;40603;48.774;8.916;2024-03-23T15:45:20;3.90;;;0.77;;
54705;SDS011;40603;48.774;8.916;2024-03-23T15:47:45;2.58;;;0.85;;
54705;SDS011;40603;48.774;8.916;2024-03-23T15:50:10;1.40;;;0.63;;
54705;SDS011;40603;48.774;8.916;2024-03-23T15:52:36;3.80;;;0.90;;
54705;SDS011;40603;48.774;8.916;2024-03-23T15:55:02;1.48;;;0.63;;